createdAt,value
2017-09-11T00:00:46.058Z,22.95
2017-09-11T00:03:13.668Z,22.93
2017-09-11T00:05:41.336Z,22.93
2017-09-11T00:08:09.221Z,22.92
2017-09-11T00:10:36.755Z,22.91
2017-09-11T00:13:04.735Z,22.91
2017-09-11T00:15:32.308Z,22.90
2017-09-11T00:17:59.982Z,22.90
2017-09-11T00:20:27.625Z,22.89
2017-09-11T00:22:55.302Z,22.88
2017-09-11T00:25:22.894Z,22.87
2017-09-11T00:27:50.449Z,22.86
2017-09-11T00:30:18.044Z,22.86
2017-09-11T00:32:45.681Z,22.85
2017-09-11T00:35:13.333Z,22.84
2017-09-11T00:37:40.994Z,22.83
2017-09-11T00:40:08.642Z,22.83
2017-09-11T00:42:36.266Z,22.81
2017-09-11T00:45:04.500Z,22.82
2017-09-11T00:47:32.101Z,22.80
2017-09-11T00:49:59.747Z,22.78
2017-09-11T00:52:27.357Z,22.77
2017-09-11T00:54:54.968Z,22.77
2017-09-11T00:57:22.716Z,22.75
2017-09-11T00:59:50.518Z,22.76
2017-09-11T01:02:18.094Z,22.75
2017-09-11T01:04:45.758Z,22.77
2017-09-11T01:07:13.435Z,22.76
2017-09-11T01:09:41.018Z,22.72
2017-09-11T01:12:08.606Z,22.70
2017-09-11T01:14:36.276Z,22.67
2017-09-11T01:17:04.078Z,22.66
2017-09-11T01:19:31.680Z,22.65
2017-09-11T01:21:59.335Z,22.62
2017-09-11T01:24:26.880Z,22.58
2017-09-11T01:26:54.537Z,22.56
2017-09-11T01:29:22.187Z,22.52
2017-09-11T01:31:50.001Z,22.51
2017-09-11T01:34:17.651Z,22.48
2017-09-11T01:36:45.460Z,22.47
2017-09-11T01:39:13.332Z,22.45
2017-09-11T01:41:40.924Z,22.45
2017-09-11T01:44:08.626Z,22.43
2017-09-11T01:46:37.106Z,22.43
2017-09-11T01:49:04.975Z,22.42
2017-09-11T01:51:32.586Z,22.43
2017-09-11T01:54:00.186Z,22.40
2017-09-11T01:56:27.832Z,22.40
2017-09-11T01:58:55.404Z,22.40
2017-09-11T02:01:23.023Z,22.41
2017-09-11T02:03:50.582Z,22.40
2017-09-11T02:06:18.189Z,22.39
2017-09-11T02:08:45.803Z,22.37
2017-09-11T02:11:15.322Z,22.36
2017-09-11T02:13:42.927Z,22.35
2017-09-11T02:16:10.559Z,22.40
2017-09-11T02:18:38.162Z,22.38
2017-09-11T02:21:05.843Z,22.34
2017-09-11T02:23:33.469Z,22.35
2017-09-11T02:26:01.293Z,22.38
2017-09-11T02:28:28.881Z,22.38
2017-09-11T02:30:56.500Z,22.36
2017-09-11T02:33:24.173Z,22.34
2017-09-11T02:35:51.814Z,22.38
2017-09-11T02:38:19.551Z,22.39
2017-09-11T02:40:47.143Z,22.39
2017-09-11T02:43:14.901Z,22.38
2017-09-11T02:45:42.547Z,22.37
2017-09-11T02:48:10.101Z,22.34
2017-09-11T02:50:37.758Z,22.35
2017-09-11T02:53:05.382Z,22.32
2017-09-11T02:55:32.923Z,22.32
2017-09-11T02:58:00.705Z,22.30
2017-09-11T03:00:28.411Z,22.28
2017-09-11T03:02:56.025Z,22.28
2017-09-11T03:05:23.598Z,22.29
2017-09-11T03:07:51.185Z,22.29
2017-09-11T03:10:19.246Z,22.29
2017-09-11T03:12:47.022Z,22.27
2017-09-11T03:15:14.695Z,22.28
2017-09-11T03:17:42.250Z,22.25
2017-09-11T03:20:10.031Z,22.27
2017-09-11T03:22:37.706Z,22.25
2017-09-11T03:25:06.329Z,22.24
2017-09-11T03:27:33.963Z,22.25
2017-09-11T03:30:01.737Z,22.24
2017-09-11T03:32:29.266Z,22.25
2017-09-11T03:34:56.921Z,22.26
2017-09-11T03:37:24.499Z,22.26
2017-09-11T03:39:52.166Z,22.25
2017-09-11T03:42:19.869Z,22.25
2017-09-11T03:44:47.463Z,22.20
2017-09-11T03:47:15.274Z,22.21
2017-09-11T03:49:42.953Z,22.23
2017-09-11T03:52:10.583Z,22.25
2017-09-11T03:54:38.177Z,22.27
2017-09-11T03:57:05.794Z,22.27
2017-09-11T04:02:06.283Z,22.31
2017-09-11T04:04:34.003Z,22.37
2017-09-11T04:07:01.624Z,22.39
2017-09-11T04:09:29.260Z,22.42
2017-09-11T04:11:57.017Z,22.42
2017-09-11T04:14:24.671Z,22.45
2017-09-11T04:16:52.189Z,22.47
2017-09-11T04:19:20.002Z,22.49
2017-09-11T04:21:47.597Z,22.52
2017-09-11T04:24:15.207Z,22.59
2017-09-11T04:26:42.866Z,22.81
2017-09-11T04:29:10.579Z,22.99
2017-09-11T04:34:12.775Z,23.33
2017-09-11T04:36:40.542Z,23.29
2017-09-11T04:39:08.089Z,23.24
2017-09-11T04:41:35.851Z,23.41
2017-09-11T04:44:03.934Z,23.63
2017-09-11T04:46:31.813Z,23.79
2017-09-11T04:49:00.310Z,23.91
2017-09-11T04:51:28.624Z,24.03
2017-09-11T04:53:57.191Z,24.15
2017-09-11T04:56:25.270Z,24.28
2017-09-11T04:58:53.017Z,24.31
2017-09-11T05:01:21.017Z,24.14
2017-09-11T05:03:48.720Z,23.95
2017-09-11T05:06:17.010Z,23.88
2017-09-11T05:08:44.670Z,23.81
2017-09-11T05:11:12.319Z,23.79
2017-09-11T05:13:40.016Z,23.72
2017-09-11T05:16:07.579Z,23.69
2017-09-11T05:18:35.094Z,23.68
2017-09-11T05:21:02.655Z,23.65
2017-09-11T05:23:30.207Z,23.69
2017-09-11T05:25:57.730Z,23.68
2017-09-11T05:28:25.303Z,23.67
2017-09-11T05:30:52.841Z,23.67
2017-09-11T05:33:20.501Z,23.67
2017-09-11T05:35:48.089Z,23.72
2017-09-11T05:38:15.634Z,23.70
2017-09-11T05:40:43.184Z,23.71
2017-09-11T05:43:10.819Z,23.67
2017-09-11T05:46:09.454Z,23.75
2017-09-11T05:48:37.193Z,23.75
2017-09-11T05:51:06.642Z,23.69
2017-09-11T05:53:34.958Z,23.75
2017-09-11T06:01:12.403Z,23.90
2017-09-11T07:22:55.436Z,25.23
2017-09-11T07:25:33.072Z,25.12
2017-09-11T07:28:21.899Z,25.31
2017-09-11T07:30:56.278Z,25.09
2017-09-11T07:33:26.518Z,25.09
2017-09-11T07:38:42.229Z,25.28
2017-09-11T12:15:13.578Z,26.08
2017-09-11T13:29:11.338Z,26.14
2017-09-11T13:35:35.459Z,26.08
2017-09-11T13:41:05.371Z,25.96
2017-09-11T13:43:34.471Z,25.95
2017-09-11T14:00:13.802Z,26.11
2017-09-11T14:31:14.514Z,26.35
2017-09-11T15:26:33.144Z,26.27
2017-09-11T15:29:22.500Z,26.31
2017-09-11T16:48:35.953Z,26.03
2017-09-11T17:22:07.136Z,26.06
2017-09-11T18:23:35.075Z,26.16
2017-09-11T18:26:02.823Z,26.18
2017-09-11T18:28:30.945Z,26.18
2017-09-11T18:30:58.662Z,26.17
2017-09-11T18:33:26.299Z,26.18
2017-09-11T18:35:54.241Z,26.18
2017-09-11T18:38:23.315Z,26.18
2017-09-11T18:43:38.081Z,26.15
2017-09-11T18:46:06.068Z,26.16
2017-09-11T18:48:33.636Z,26.14
2017-09-11T18:51:01.765Z,26.15
2017-09-11T18:53:32.922Z,26.14
2017-09-11T18:56:00.611Z,26.14
2017-09-11T18:58:31.851Z,26.14
2017-09-11T19:01:00.065Z,26.14
2017-09-11T19:03:28.332Z,26.13
2017-09-11T19:05:58.982Z,26.14
2017-09-11T19:08:26.625Z,26.13
2017-09-11T19:10:54.341Z,26.12
2017-09-11T19:13:22.024Z,26.09
2017-09-11T19:15:49.586Z,26.11
2017-09-11T19:18:17.449Z,26.11
2017-09-11T19:20:58.107Z,26.11
2017-09-11T19:23:26.345Z,26.10
2017-09-11T19:26:01.931Z,26.08
2017-09-11T19:28:29.596Z,26.10
2017-09-11T19:30:57.237Z,26.08
2017-09-11T19:33:25.125Z,26.08
2017-09-11T19:35:53.340Z,26.07
2017-09-11T19:38:21.104Z,26.07
2017-09-11T19:40:48.794Z,26.06
2017-09-11T19:43:16.456Z,26.07
2017-09-11T19:45:46.676Z,26.06
2017-09-11T19:48:14.324Z,26.04
2017-09-11T19:50:41.922Z,26.05
2017-09-11T19:53:09.693Z,26.05
2017-09-11T19:55:37.260Z,26.03
2017-09-11T19:58:17.939Z,26.03
2017-09-11T20:00:45.842Z,26.03
2017-09-11T20:03:13.433Z,26.03
2017-09-11T20:05:42.118Z,26.01
2017-09-11T20:08:10.128Z,26.01
2017-09-11T20:10:37.753Z,25.99
2017-09-11T20:13:06.023Z,25.99
2017-09-11T20:15:41.312Z,25.98
2017-09-11T20:18:09.175Z,25.99
2017-09-11T20:20:36.819Z,25.98
2017-09-11T20:23:04.693Z,25.97
2017-09-11T20:25:39.929Z,25.94
2017-09-11T20:28:07.573Z,25.89
2017-09-11T20:30:56.193Z,25.84
2017-09-11T20:33:23.885Z,25.81
2017-09-11T20:35:51.510Z,25.78
2017-09-11T20:38:19.129Z,25.74
2017-09-11T20:40:46.660Z,25.71
2017-09-11T20:43:14.408Z,25.67
2017-09-11T20:45:45.118Z,25.61
2017-09-11T20:48:13.096Z,25.60
2017-09-11T20:50:40.753Z,25.56
2017-09-11T20:53:08.365Z,25.53
2017-09-11T20:55:36.101Z,25.49
2017-09-11T20:58:03.677Z,25.45
2017-09-11T21:00:31.241Z,25.40
2017-09-11T21:02:58.904Z,25.39
2017-09-11T21:05:26.586Z,25.35
2017-09-11T21:07:55.146Z,25.31
2017-09-11T21:10:22.796Z,25.29
2017-09-11T21:12:50.367Z,25.25
2017-09-11T21:15:26.622Z,25.23
2017-09-11T21:17:57.366Z,25.22
2017-09-11T21:20:26.482Z,25.19
2017-09-11T21:23:07.440Z,25.16
2017-09-11T21:28:08.990Z,25.06
2017-09-11T21:30:40.166Z,25.01
2017-09-11T21:33:07.799Z,25.03
2017-09-11T21:35:35.452Z,24.99
2017-09-11T21:38:03.094Z,24.99
2017-09-11T21:40:31.782Z,24.95
2017-09-11T21:42:59.645Z,24.91
2017-09-11T21:45:29.121Z,24.91
2017-09-11T21:47:57.211Z,24.87
2017-09-11T21:50:24.869Z,24.87
2017-09-11T21:52:54.985Z,24.82
2017-09-11T21:55:24.088Z,24.83
2017-09-11T21:57:51.795Z,24.81
2017-09-11T22:00:19.717Z,24.79
2017-09-11T22:02:47.393Z,24.78
2017-09-11T22:05:15.177Z,24.74
2017-09-11T22:07:42.956Z,24.72
2017-09-11T22:10:10.625Z,24.70
2017-09-11T22:12:38.338Z,24.67
2017-09-11T22:15:06.210Z,24.66
2017-09-11T22:17:33.762Z,24.63
2017-09-11T22:20:01.390Z,24.62
2017-09-11T22:22:29.005Z,24.58
2017-09-11T22:24:57.582Z,24.58
2017-09-11T22:27:25.542Z,24.54
2017-09-11T22:29:53.095Z,24.55
2017-09-11T22:32:20.702Z,24.52
2017-09-11T22:37:22.166Z,24.47
2017-09-11T22:39:49.933Z,24.47
2017-09-11T22:42:17.513Z,24.45
2017-09-11T22:44:45.153Z,24.43
2017-09-11T22:47:12.817Z,24.42
2017-09-11T22:49:40.576Z,24.41
2017-09-11T22:52:08.173Z,24.40
2017-09-11T22:54:36.598Z,24.38
2017-09-11T22:57:05.096Z,24.36
2017-09-11T22:59:32.854Z,24.35
2017-09-11T23:02:00.647Z,24.34
2017-09-11T23:04:28.267Z,24.31
2017-09-11T23:06:56.553Z,24.30
2017-09-11T23:09:24.461Z,24.29
2017-09-11T23:11:52.075Z,24.28
2017-09-11T23:14:19.696Z,24.27
2017-09-11T23:16:47.331Z,24.25
2017-09-11T23:19:15.055Z,24.24
2017-09-11T23:21:42.818Z,24.21
2017-09-11T23:24:10.497Z,24.20
2017-09-11T23:26:38.128Z,24.18
2017-09-11T23:29:05.791Z,24.17
2017-09-11T23:31:33.405Z,24.16
2017-09-11T23:34:01.002Z,24.15
2017-09-11T23:36:29.906Z,24.13
2017-09-11T23:38:57.600Z,24.12
2017-09-11T23:41:28.804Z,24.10
2017-09-11T23:43:56.395Z,24.08
2017-09-11T23:46:24.158Z,24.06
2017-09-11T23:48:51.780Z,24.07
2017-09-11T23:51:19.374Z,24.05
2017-09-11T23:53:47.371Z,24.04
2017-09-11T23:56:14.932Z,24.04
2017-09-11T23:58:42.588Z,24.02
